South Haven, Minnesota
Current Conditions -  °F | °C
As of 4:35 AM on Thursday 27 Nov 2014 (Local Time) from KMGG Reporting Station
Clear Clear  
Wind Chill: -16°   Ceiling: Unl
Heat Index: -1°   Visibility: 10mi
Dew Point: -5°   Wind: 9mph
Humidity: 82%   Direction: 330°NNW
Pressure: 30.49"   Gusts: NA
Location:  45.29°N, 94.21°W
Report Text: KMGG 271035Z AUTO 33008KT 10SM CLR M18/M21 A3049 RMK AO2 T11831207
Loading
Personal Weather Stations






























Interactive Weather Map New forecast layout! Learn more

10-Day Weather Forecast

Advertisements
Track Severe Weather on mobile